createdAt,value
2023-04-13T00:00:48.203Z,49788.81
2023-04-13T00:03:17.571Z,49816.72
2023-04-13T00:05:53.005Z,49790.81
2023-04-13T00:08:22.938Z,49852.59
2023-04-13T00:10:50.976Z,49826.69
2023-04-13T00:13:18.885Z,49806.75
2023-04-13T00:15:45.527Z,49804.75
2023-04-13T00:18:12.481Z,49808.75
2023-04-13T00:20:41.750Z,49812.72
2023-04-13T00:23:08.621Z,49854.59
2023-04-13T00:25:35.361Z,49792.78
2023-04-13T00:28:03.765Z,49836.66
2023-04-13T00:30:30.861Z,49822.69
2023-04-13T00:32:57.688Z,49828.69
2023-04-13T00:35:27.849Z,49846.63
2023-04-13T00:37:54.552Z,49804.75
2023-04-13T00:40:23.414Z,49806.75
2023-04-13T00:42:50.803Z,49826.69
2023-04-13T00:45:18.285Z,49814.72
2023-04-13T00:47:46.991Z,49818.72
2023-04-13T00:50:16.649Z,49838.66
2023-04-13T00:52:43.754Z,49838.66
2023-04-13T00:55:10.638Z,49864.56
2023-04-13T00:57:40.706Z,49834.66
2023-04-13T01:00:11.405Z,49802.75
2023-04-13T01:02:42.612Z,49822.69
2023-04-13T01:05:14.212Z,49790.81
2023-04-13T01:07:44.982Z,49852.59
2023-04-13T01:10:18.666Z,49806.75
2023-04-13T01:13:00.546Z,49836.66
2023-04-13T01:15:29.928Z,49822.69
2023-04-13T01:18:07.378Z,49810.75
2023-04-13T01:20:37.143Z,49820.69
2023-04-13T01:23:24.730Z,49838.66
2023-04-13T01:25:57.908Z,49780.84
2023-04-13T01:28:26.260Z,49826.69
2023-04-13T01:30:53.826Z,49822.69
2023-04-13T01:33:22.943Z,49826.69
2023-04-13T01:35:50.345Z,49834.66
2023-04-13T01:38:24.598Z,49794.78
2023-04-13T01:40:53.633Z,49832.66
2023-04-13T01:43:21.676Z,49808.75
2023-04-13T01:46:04.908Z,49834.66
2023-04-13T01:48:39.092Z,49798.78
2023-04-13T01:51:32.287Z,49812.72
2023-04-13T01:54:16.280Z,49834.66
2023-04-13T01:56:45.550Z,49808.75
2023-04-13T01:59:13.168Z,49822.69
2023-04-13T02:01:41.184Z,49850.59
2023-04-13T02:04:08.134Z,49854.59
2023-04-13T02:06:37.276Z,49828.69
2023-04-13T02:09:06.843Z,49800.78
2023-04-13T02:11:35.445Z,49810.75
2023-04-13T02:14:04.915Z,49806.75
2023-04-13T02:16:32.494Z,49796.78
2023-04-13T02:18:59.340Z,49826.69
2023-04-13T02:21:26.740Z,49832.66
2023-04-13T02:23:53.417Z,49838.66
2023-04-13T02:26:22.139Z,49836.66
2023-04-13T02:28:51.168Z,49826.69
2023-04-13T02:31:20.632Z,49814.72
2023-04-13T02:33:47.653Z,49802.75
2023-04-13T02:36:17.262Z,49814.72
2023-04-13T02:38:51.580Z,49848.63
2023-04-13T02:41:26.065Z,49820.69
2023-04-13T02:43:52.758Z,49854.59
2023-04-13T02:46:23.718Z,49812.72
2023-04-13T02:48:57.558Z,49850.59
2023-04-13T02:51:28.009Z,49820.69
2023-04-13T02:53:57.782Z,49842.63
2023-04-13T02:56:28.436Z,49838.66
2023-04-13T02:58:59.193Z,49820.69
2023-04-13T03:01:26.207Z,49826.69
2023-04-13T03:03:54.589Z,49822.69
2023-04-13T03:06:24.308Z,49862.56
2023-04-13T03:08:56.818Z,49850.59
2023-04-13T03:11:23.785Z,49882.50
2023-04-13T03:14:13.199Z,49864.56
2023-04-13T03:16:41.779Z,49852.59
2023-04-13T03:19:10.322Z,49846.63
2023-04-13T03:21:41.454Z,49844.63
2023-04-13T03:24:12.875Z,49882.50
2023-04-13T03:26:40.711Z,49822.69
2023-04-13T03:29:12.306Z,49816.72
2023-04-13T03:31:42.991Z,49802.75
2023-04-13T03:34:09.798Z,49858.59
2023-04-13T03:36:37.280Z,49810.75
2023-04-13T03:39:05.441Z,49838.66
2023-04-13T03:41:35.245Z,49850.59
2023-04-13T03:44:02.441Z,49832.66
2023-04-13T03:46:32.028Z,49818.72
2023-04-13T03:49:09.824Z,49878.53
2023-04-13T03:51:37.732Z,49842.63
2023-04-13T03:54:04.689Z,49880.50
2023-04-13T03:56:33.333Z,49846.63
2023-04-13T03:59:00.296Z,49850.59
2023-04-13T04:01:27.538Z,49866.56
2023-04-13T04:03:57.589Z,49824.69
2023-04-13T04:06:29.827Z,49838.66
2023-04-13T04:09:12.254Z,49826.69
2023-04-13T04:11:45.650Z,49862.56
2023-04-13T04:14:14.860Z,49850.59
2023-04-13T04:16:50.674Z,49826.69
2023-04-13T04:19:18.739Z,49842.63
2023-04-13T04:21:47.160Z,49892.47
2023-04-13T04:24:23.547Z,49860.56
2023-04-13T04:27:00.452Z,49832.66
2023-04-13T04:29:34.340Z,49870.53
2023-04-13T04:32:10.875Z,49864.56
2023-04-13T04:34:38.897Z,49846.63
2023-04-13T04:39:44.205Z,49868.56
2023-04-13T04:42:15.398Z,49858.59
2023-04-13T04:44:44.604Z,49834.66
2023-04-13T04:47:17.030Z,49854.59
2023-04-13T04:50:01.850Z,49880.50
2023-04-13T04:52:33.017Z,49860.56
2023-04-13T04:55:01.275Z,49882.50
2023-04-13T04:57:29.839Z,49842.63
2023-04-13T04:59:56.926Z,49834.66
2023-04-13T05:02:23.773Z,49858.59
2023-04-13T05:04:50.666Z,49850.59
2023-04-13T05:07:18.990Z,49852.59
2023-04-13T05:09:45.709Z,49846.63
2023-04-13T05:12:12.385Z,49854.59
2023-04-13T05:14:42.312Z,49884.50
2023-04-13T05:17:10.104Z,49850.59
2023-04-13T05:19:39.920Z,49840.63
2023-04-13T05:22:15.493Z,49860.56
2023-04-13T05:24:49.130Z,49858.59
2023-04-13T05:27:17.507Z,49852.59
2023-04-13T05:29:46.325Z,49848.63
2023-04-13T05:32:17.400Z,49880.50
2023-04-13T05:34:46.000Z,49862.56
2023-04-13T05:37:18.189Z,49854.59
2023-04-13T05:39:45.234Z,49814.72
2023-04-13T05:42:12.849Z,49822.69
2023-04-13T05:44:43.597Z,49842.63
2023-04-13T05:47:12.211Z,49814.72
2023-04-13T05:49:41.007Z,49842.63
2023-04-13T05:52:10.500Z,49860.56
2023-04-13T05:54:44.374Z,49816.72
2023-04-13T05:57:11.510Z,49856.59
2023-04-13T05:59:42.685Z,49830.66
2023-04-13T06:02:10.937Z,49874.53
2023-04-13T06:04:38.032Z,49814.72
2023-04-13T06:07:05.872Z,49850.59
2023-04-13T06:09:33.489Z,49866.56
2023-04-13T06:12:00.215Z,49802.75
2023-04-13T06:14:26.884Z,49812.72
2023-04-13T06:16:53.649Z,49862.56
2023-04-13T06:19:20.976Z,49872.53
2023-04-13T06:21:47.656Z,49826.69
2023-04-13T06:24:14.398Z,49826.69
2023-04-13T06:26:41.135Z,49842.63
2023-04-13T06:29:07.803Z,49872.53
2023-04-13T06:31:42.903Z,49834.66
2023-04-13T06:34:14.678Z,49792.78
2023-04-13T06:36:42.502Z,49834.66
2023-04-13T06:39:13.773Z,49836.66
2023-04-13T06:41:45.489Z,49812.72
2023-04-13T06:44:22.485Z,49806.75
2023-04-13T06:46:54.187Z,49844.63
2023-04-13T06:49:22.916Z,49872.53
2023-04-13T06:51:51.475Z,49826.69
2023-04-13T06:54:18.509Z,49824.69
2023-04-13T06:56:49.357Z,49818.72
2023-04-13T06:59:16.165Z,49834.66
2023-04-13T07:01:43.126Z,49840.63
2023-04-13T07:04:10.000Z,49826.69
2023-04-13T07:06:37.681Z,49858.59
2023-04-13T07:09:04.369Z,49810.75
2023-04-13T07:11:32.079Z,49822.69
2023-04-13T07:14:00.632Z,49808.75
2023-04-13T07:16:27.400Z,49848.63
2023-04-13T07:18:54.082Z,49826.69
2023-04-13T07:21:21.705Z,49802.75
2023-04-13T07:24:05.470Z,49806.75
2023-04-13T07:26:34.873Z,49810.75
2023-04-13T07:29:01.673Z,49806.75
2023-04-13T07:31:35.186Z,49834.66
2023-04-13T07:34:02.492Z,49854.59
2023-04-13T07:36:34.652Z,49806.75
2023-04-13T07:39:08.932Z,49784.81
2023-04-13T07:41:38.312Z,49832.66
2023-04-13T07:44:07.939Z,49788.81
2023-04-13T07:46:34.787Z,49820.69
2023-04-13T07:49:02.194Z,49798.78
2023-04-13T07:51:34.575Z,49788.81
2023-04-13T07:54:02.748Z,49776.84
2023-04-13T07:56:31.773Z,49838.66
2023-04-13T07:59:00.797Z,49820.69
2023-04-13T08:01:28.109Z,49782.81
2023-04-13T08:03:57.604Z,49792.78
2023-04-13T08:06:27.463Z,49802.75
2023-04-13T08:08:54.601Z,49822.69
2023-04-13T08:11:21.407Z,49810.75
2023-04-13T08:13:54.066Z,49814.72
2023-04-13T08:16:21.527Z,49776.84
2023-04-13T08:18:48.684Z,49822.69
2023-04-13T08:21:15.533Z,49802.75
2023-04-13T08:23:45.029Z,49816.72
2023-04-13T08:26:18.983Z,49826.69
2023-04-13T08:28:50.984Z,49778.84
2023-04-13T08:31:17.829Z,49796.78
2023-04-13T08:33:52.535Z,49808.75
2023-04-13T08:36:19.275Z,49778.84
2023-04-13T08:38:51.057Z,49764.88
2023-04-13T08:41:21.551Z,49790.81
2023-04-13T08:43:50.622Z,49798.78
2023-04-13T08:46:21.278Z,49810.75
2023-04-13T08:48:54.498Z,49842.63
2023-04-13T08:51:29.384Z,49798.78
2023-04-13T08:53:56.902Z,49778.84
2023-04-13T08:56:42.638Z,49786.81
2023-04-13T08:59:18.572Z,49812.72
2023-04-13T09:01:48.812Z,49810.75
2023-04-13T09:04:22.937Z,49774.84
2023-04-13T09:06:59.979Z,49782.81
2023-04-13T09:09:27.835Z,49782.81
2023-04-13T09:11:55.708Z,49818.72
2023-04-13T09:14:24.079Z,49814.72
2023-04-13T09:16:52.583Z,49804.75
2023-04-13T09:19:33.287Z,49786.81
2023-04-13T09:22:13.758Z,49782.81
2023-04-13T09:24:41.535Z,49798.78
2023-04-13T09:27:21.551Z,49802.75
2023-04-13T09:29:50.527Z,49818.72
2023-04-13T09:32:25.101Z,49802.75
2023-04-13T09:35:08.127Z,49792.78
2023-04-13T09:37:36.740Z,49786.81
2023-04-13T09:40:13.758Z,49774.84
2023-04-13T09:42:41.742Z,49812.72
2023-04-13T09:45:09.590Z,49798.78
2023-04-13T09:47:38.399Z,49794.78
2023-04-13T09:50:05.741Z,49782.81
2023-04-13T09:52:33.193Z,49792.78
2023-04-13T09:54:59.981Z,49808.75
2023-04-13T09:57:31.620Z,49784.81
2023-04-13T10:00:01.539Z,49816.72
2023-04-13T10:02:39.484Z,49784.81
2023-04-13T10:05:09.271Z,49792.78
2023-04-13T10:07:37.334Z,49774.84
2023-04-13T10:10:04.614Z,49782.81
2023-04-13T10:12:34.956Z,49778.84
2023-04-13T10:15:44.392Z,49774.84
2023-04-13T10:18:38.823Z,49762.88
2023-04-13T10:21:05.797Z,49768.88
2023-04-13T10:23:33.641Z,49794.78
2023-04-13T10:26:03.778Z,49750.94
2023-04-13T10:28:42.400Z,49786.81
2023-04-13T10:31:10.595Z,49750.94
2023-04-13T10:33:50.656Z,49778.84
2023-04-13T10:36:17.755Z,49766.88
2023-04-13T10:38:47.706Z,49776.84
2023-04-13T10:41:25.028Z,49806.75
2023-04-13T10:44:02.876Z,49782.81
2023-04-13T10:46:29.968Z,49729.00
2023-04-13T10:49:00.398Z,49770.88
2023-04-13T10:51:39.335Z,49820.69
2023-04-13T10:54:07.288Z,49762.88
2023-04-13T10:56:34.105Z,49750.94
2023-04-13T10:59:01.038Z,49756.91
2023-04-13T11:01:29.989Z,49790.81
2023-04-13T11:04:05.192Z,49734.97
2023-04-13T11:06:40.030Z,49794.78
2023-04-13T11:09:07.640Z,49754.91
2023-04-13T11:11:36.740Z,49736.97
2023-04-13T11:14:03.861Z,49794.78
2023-04-13T11:16:31.346Z,49733.00
2023-04-13T11:19:05.251Z,49733.00
2023-04-13T11:21:31.958Z,49727.00
2023-04-13T11:24:02.514Z,49725.00
2023-04-13T11:26:34.228Z,49723.03
2023-04-13T11:29:02.821Z,49695.09
2023-04-13T11:31:40.125Z,49734.97
2023-04-13T11:34:09.584Z,49748.94
2023-04-13T11:36:39.045Z,49731.00
2023-04-13T11:39:10.773Z,49736.97
2023-04-13T11:41:43.913Z,49782.81
2023-04-13T11:44:13.711Z,49744.94
2023-04-13T11:46:40.503Z,49784.81
2023-04-13T11:49:07.630Z,49766.88
2023-04-13T11:51:35.093Z,49738.97
2023-04-13T11:54:02.797Z,49756.91
2023-04-13T11:56:31.002Z,49733.00
2023-04-13T12:01:29.963Z,49719.03
2023-04-13T12:04:14.709Z,49705.06
2023-04-13T12:06:45.895Z,49707.06
2023-04-13T12:09:16.634Z,49723.03
2023-04-13T12:11:50.122Z,49691.13
2023-04-13T12:19:26.704Z,49697.09
2023-04-13T12:21:56.833Z,49679.16
2023-04-13T12:24:39.134Z,49695.09
2023-04-13T12:29:39.845Z,49679.16
2023-04-13T12:32:17.055Z,49711.06
2023-04-13T12:34:44.888Z,49738.97
2023-04-13T12:37:12.179Z,49719.03
2023-04-13T12:39:39.217Z,49659.22
2023-04-13T12:42:06.202Z,49711.06
2023-04-13T12:44:34.351Z,49687.13
2023-04-13T12:47:01.897Z,49681.16
2023-04-13T12:49:28.903Z,49711.06
2023-04-13T12:51:55.597Z,49685.13
2023-04-13T12:54:22.247Z,49695.09
2023-04-13T12:56:48.914Z,49667.19
2023-04-13T12:59:16.694Z,49681.16
2023-04-13T13:01:43.530Z,49675.19
2023-04-13T13:04:10.407Z,49671.19
2023-04-13T13:06:37.192Z,49673.19
2023-04-13T13:09:03.886Z,49717.03
2023-04-13T13:11:30.832Z,49661.22
2023-04-13T13:13:57.507Z,49627.31
2023-04-13T13:16:24.325Z,49701.09
2023-04-13T13:18:52.040Z,49655.25
2023-04-13T13:21:19.542Z,49645.28
2023-04-13T13:23:46.401Z,49649.25
2023-04-13T13:28:42.938Z,49703.09
2023-04-13T13:31:10.886Z,49689.13
2023-04-13T13:33:37.558Z,49770.88
2023-04-13T13:36:04.386Z,49721.03
2023-04-13T13:38:31.073Z,49748.94
2023-04-13T13:40:57.799Z,49697.09
2023-04-13T13:43:24.501Z,49697.09
2023-04-13T13:45:51.257Z,49679.16
2023-04-13T13:48:18.322Z,49719.03
2023-04-13T13:50:53.606Z,49657.22
2023-04-13T13:53:20.473Z,49695.09
2023-04-13T13:55:47.195Z,49675.19
2023-04-13T13:58:13.899Z,49663.22
2023-04-13T14:00:40.723Z,49661.22
2023-04-13T14:03:07.801Z,49685.13
2023-04-13T14:05:34.930Z,49665.22
2023-04-13T14:08:01.677Z,49635.31
2023-04-13T14:10:28.362Z,49647.25
2023-04-13T14:12:55.805Z,49691.13
2023-04-13T14:15:22.609Z,49665.22
2023-04-13T14:18:02.477Z,49683.16
2023-04-13T14:20:40.639Z,49657.22
2023-04-13T14:23:09.305Z,49675.19
2023-04-13T14:25:37.433Z,49693.13
2023-04-13T14:28:04.239Z,49703.09
2023-04-13T14:30:30.936Z,49671.19
2023-04-13T14:32:57.625Z,49647.25
2023-04-13T14:35:24.815Z,49667.19
2023-04-13T14:37:52.611Z,49639.28
2023-04-13T14:40:22.360Z,49619.34
2023-04-13T14:42:51.151Z,49627.31
2023-04-13T14:45:18.300Z,49631.31
2023-04-13T14:47:45.033Z,49673.19
2023-04-13T14:50:12.616Z,49703.09
2023-04-13T14:52:39.800Z,49667.19
2023-04-13T14:55:06.775Z,49679.16
2023-04-13T14:57:33.522Z,49653.25
2023-04-13T15:00:00.286Z,49639.28
2023-04-13T15:02:28.749Z,49691.13
2023-04-13T15:04:55.950Z,49619.34
2023-04-13T15:07:29.911Z,49615.38
2023-04-13T15:09:58.081Z,49667.19
2023-04-13T15:12:25.026Z,49663.22
2023-04-13T15:14:51.653Z,49671.19
2023-04-13T15:17:18.549Z,49617.38
2023-04-13T15:19:45.294Z,49575.50
2023-04-13T15:22:11.950Z,49583.47
2023-04-13T15:24:38.651Z,49563.53
2023-04-13T15:27:05.673Z,49675.19
2023-04-13T15:29:32.413Z,49607.41
2023-04-13T15:32:00.265Z,49599.41
2023-04-13T15:34:27.955Z,49595.44
2023-04-13T15:36:56.928Z,49563.53
2023-04-13T15:39:23.646Z,49597.44
2023-04-13T15:41:52.559Z,49631.31
2023-04-13T15:44:19.298Z,49561.53
2023-04-13T15:46:47.905Z,49579.47
2023-04-13T15:49:14.923Z,49583.47
2023-04-13T15:51:41.738Z,49597.44
2023-04-13T15:54:08.402Z,49647.25
2023-04-13T15:56:35.508Z,49633.31
2023-04-13T15:59:02.452Z,49647.25
2023-04-13T16:01:44.601Z,49671.19
2023-04-13T16:04:11.932Z,49665.22
2023-04-13T16:06:38.727Z,49627.31
2023-04-13T16:09:05.613Z,49607.41
2023-04-13T16:11:32.415Z,49583.47
2023-04-13T16:14:07.056Z,49559.56
2023-04-13T16:16:57.350Z,49525.66
2023-04-13T16:19:24.003Z,49641.28
2023-04-13T16:21:53.789Z,49643.28
2023-04-13T16:24:21.167Z,49671.19
2023-04-13T16:26:48.034Z,49661.22
2023-04-13T16:29:14.769Z,49673.19
2023-04-13T16:31:44.732Z,49675.19
2023-04-13T16:34:24.750Z,49691.13
2023-04-13T16:36:53.096Z,49665.22
2023-04-13T16:39:19.898Z,49621.34
2023-04-13T16:41:46.713Z,49663.22
2023-04-13T16:44:13.412Z,49605.41
2023-04-13T16:46:40.139Z,49591.44
2023-04-13T16:49:06.837Z,49609.38
2023-04-13T16:51:33.495Z,49581.47
2023-04-13T16:54:00.338Z,49591.44
2023-04-13T16:56:30.585Z,49583.47
2023-04-13T16:58:57.661Z,49571.50
2023-04-13T17:01:25.647Z,49621.34
2023-04-13T17:03:53.366Z,49555.56
2023-04-13T17:06:20.533Z,49535.63
2023-04-13T17:08:47.286Z,49551.56
2023-04-13T17:11:14.288Z,49543.59
2023-04-13T17:13:41.068Z,49587.47
2023-04-13T17:16:08.644Z,49609.38
2023-04-13T17:18:35.417Z,49619.34
2023-04-13T17:21:02.078Z,49607.41
2023-04-13T17:23:28.825Z,49691.13
2023-04-13T17:25:56.733Z,49639.28
2023-04-13T17:28:23.643Z,49671.19
2023-04-13T17:30:50.409Z,49653.25
2023-04-13T17:33:17.242Z,49631.31
2023-04-13T17:35:43.931Z,49679.16
2023-04-13T17:38:10.985Z,49671.19
2023-04-13T17:40:37.669Z,49691.13
2023-04-13T17:43:07.475Z,49679.16
2023-04-13T17:45:34.286Z,49701.09
2023-04-13T17:48:01.076Z,49657.22
2023-04-13T17:50:27.761Z,49667.19
2023-04-13T17:52:54.419Z,49663.22
2023-04-13T17:55:21.143Z,49717.03
2023-04-13T17:57:47.847Z,49705.06
2023-04-13T18:00:15.327Z,49691.13
2023-04-13T18:02:42.168Z,49703.09
2023-04-13T18:05:15.270Z,49697.09
2023-04-13T18:07:43.096Z,49679.16
2023-04-13T18:10:10.093Z,49721.03
2023-04-13T18:12:39.399Z,49699.09
2023-04-13T18:15:07.620Z,49691.13
2023-04-13T18:17:35.786Z,49687.13
2023-04-13T18:20:03.327Z,49697.09
2023-04-13T18:22:30.398Z,49695.09
2023-04-13T18:24:57.114Z,49681.16
2023-04-13T18:27:26.741Z,49691.13
2023-04-13T18:29:55.001Z,49683.16
2023-04-13T18:32:22.698Z,49697.09
2023-04-13T18:34:49.818Z,49719.03
2023-04-13T18:37:16.783Z,49723.03
2023-04-13T18:39:43.589Z,49727.00
2023-04-13T18:42:10.705Z,49731.00
2023-04-13T18:44:37.357Z,49687.13
2023-04-13T18:47:04.244Z,49723.03
2023-04-13T18:49:31.044Z,49683.16
2023-04-13T18:51:57.829Z,49695.09
2023-04-13T18:54:24.488Z,49683.16
2023-04-13T18:56:51.144Z,49703.09
2023-04-13T18:59:17.834Z,49717.03
2023-04-13T19:01:45.871Z,49725.00
2023-04-13T19:04:12.749Z,49693.13
2023-04-13T19:06:39.941Z,49717.03
2023-04-13T19:09:07.042Z,49731.00
2023-04-13T19:11:47.859Z,49756.91
2023-04-13T19:14:14.708Z,49665.22
2023-04-13T19:16:41.715Z,49727.00
2023-04-13T19:19:09.064Z,49715.03
2023-04-13T19:21:35.780Z,49719.03
2023-04-13T19:24:02.554Z,49713.06
2023-04-13T19:26:29.471Z,49738.97
2023-04-13T19:28:56.214Z,49723.03
2023-04-13T19:31:23.228Z,49667.19
2023-04-13T19:33:51.493Z,49717.03
2023-04-13T19:36:18.307Z,49727.00
2023-04-13T19:38:45.393Z,49711.06
2023-04-13T19:41:13.278Z,49738.97
2023-04-13T19:43:40.108Z,49746.94
2023-04-13T19:46:06.864Z,49715.03
2023-04-13T19:48:33.722Z,49683.16
2023-04-13T19:51:00.457Z,49683.16
2023-04-13T19:53:27.088Z,49679.16
2023-04-13T19:55:53.813Z,49709.06
2023-04-13T19:58:20.580Z,49703.09
2023-04-13T20:00:47.486Z,49727.00
2023-04-13T20:03:14.459Z,49727.00
2023-04-13T20:05:41.428Z,49729.00
2023-04-13T20:08:08.111Z,49744.94
2023-04-13T20:10:34.934Z,49691.13
2023-04-13T20:13:01.690Z,49707.06
2023-04-13T20:15:32.896Z,49673.19
2023-04-13T20:17:59.693Z,49713.06
2023-04-13T20:20:28.474Z,49727.00
2023-04-13T20:22:55.413Z,49742.94
2023-04-13T20:25:22.120Z,49725.00
2023-04-13T20:27:48.776Z,49701.09
2023-04-13T20:30:15.733Z,49723.03
2023-04-13T20:32:42.544Z,49681.16
2023-04-13T20:35:09.791Z,49746.94
2023-04-13T20:37:36.470Z,49725.00
2023-04-13T20:40:06.867Z,49727.00
2023-04-13T20:42:33.842Z,49695.09
2023-04-13T20:45:01.737Z,49727.00
2023-04-13T20:47:31.177Z,49717.03
2023-04-13T20:49:59.927Z,49733.00
2023-04-13T20:52:29.946Z,49691.13
2023-04-13T20:54:56.832Z,49729.00
2023-04-13T20:57:23.757Z,49717.03
2023-04-13T20:59:52.072Z,49719.03
2023-04-13T21:02:18.915Z,49675.19
2023-04-13T21:04:46.455Z,49727.00
2023-04-13T21:07:15.301Z,49756.91
2023-04-13T21:09:42.278Z,49742.94
2023-04-13T21:12:08.977Z,49705.06
2023-04-13T21:14:35.667Z,49762.88
2023-04-13T21:17:02.385Z,49748.94
2023-04-13T21:19:29.046Z,49725.00
2023-04-13T21:21:57.495Z,49703.09
2023-04-13T21:24:24.534Z,49733.00
2023-04-13T21:26:51.295Z,49772.84
2023-04-13T21:29:20.043Z,49736.97
2023-04-13T21:31:47.753Z,49711.06
2023-04-13T21:34:15.402Z,49756.91
2023-04-13T21:39:16.322Z,49734.97
2023-04-13T21:41:42.979Z,49764.88
2023-04-13T21:44:22.691Z,49738.97
2023-04-13T21:46:55.927Z,49723.03
2023-04-13T21:49:22.607Z,49746.94
2023-04-13T21:51:49.350Z,49760.91
2023-04-13T21:54:15.989Z,49723.03
2023-04-13T21:56:42.696Z,49756.91
2023-04-13T21:59:09.331Z,49758.91
2023-04-13T22:01:36.006Z,49762.88
2023-04-13T22:04:02.787Z,49719.03
2023-04-13T22:06:29.553Z,49766.88
2023-04-13T22:08:56.263Z,49742.94
2023-04-13T22:11:22.901Z,49725.00
2023-04-13T22:13:49.607Z,49734.97
2023-04-13T22:16:16.929Z,49790.81
2023-04-13T22:18:43.770Z,49734.97
2023-04-13T22:21:10.573Z,49703.09
2023-04-13T22:23:37.227Z,49750.94
2023-04-13T22:26:04.216Z,49746.94
2023-04-13T22:28:32.068Z,49746.94
2023-04-13T22:30:58.869Z,49772.84
2023-04-13T22:33:31.593Z,49734.97
2023-04-13T22:36:00.602Z,49733.00
2023-04-13T22:38:27.350Z,49778.84
2023-04-13T22:40:54.127Z,49744.94
2023-04-13T22:43:21.051Z,49760.91
2023-04-13T22:45:47.716Z,49731.00
2023-04-13T22:48:14.372Z,49752.91
2023-04-13T22:50:41.114Z,49770.88
2023-04-13T22:53:07.833Z,49768.88
2023-04-13T22:55:34.587Z,49778.84
2023-04-13T22:58:01.307Z,49752.91
2023-04-13T23:00:27.960Z,49758.91
2023-04-13T23:02:55.973Z,49740.97
2023-04-13T23:05:23.115Z,49798.78
2023-04-13T23:07:50.702Z,49762.88
2023-04-13T23:10:17.891Z,49758.91
2023-04-13T23:12:45.782Z,49782.81
2023-04-13T23:15:13.620Z,49715.03
2023-04-13T23:17:40.834Z,49764.88
2023-04-13T23:20:08.204Z,49740.97
2023-04-13T23:22:34.980Z,49742.94
2023-04-13T23:25:01.641Z,49784.81
2023-04-13T23:27:28.397Z,49774.84
2023-04-13T23:29:55.202Z,49778.84
2023-04-13T23:32:21.948Z,49768.88
2023-04-13T23:34:48.797Z,49776.84
2023-04-13T23:37:15.528Z,49788.81
2023-04-13T23:39:42.263Z,49746.94
2023-04-13T23:42:09.340Z,49746.94
2023-04-13T23:44:36.027Z,49748.94
2023-04-13T23:47:03.255Z,49770.88
2023-04-13T23:49:29.918Z,49794.78
2023-04-13T23:51:56.599Z,49778.84
2023-04-13T23:54:23.407Z,49733.00
2023-04-13T23:56:50.057Z,49786.81
2023-04-13T23:59:18.750Z,49778.84
